Port Gamble, Washington
Current Conditions -  °F | °C
As of 7:53 AM on Saturday 25 Oct 2014 (Local Time) from KPAE Reporting Station
Haze Haze  
Wind Chill: 45°   Ceiling: 11000
Heat Index: 49°   Visibility: 6mi
Dew Point: 47°   Wind: 10mph
Humidity: 93%   Direction: 200°SSW
Pressure: 29.52"   Gusts: NA
Location:  47.85°N, 122.59°W
Report Text: KPAE 251453Z 20009KT 6SM BR SCT090 OVC110 09/08 A2952 RMK AO2 SLP996 T00940083 55006
Loading
Personal Weather Stations






























Interactive Weather Map
Tropical Storm Tracking
New forecast layout! Learn more

10-Day Weather Forecast

Advertisements
Track Severe Weather on mobile